Shive, Texas
Current Conditions -  °F | °C
As of 5:15 AM on Thursday 23 Oct 2014 (Local Time) from KMNZ Reporting Station
Overcast Overcast  
Wind Chill: 65°   Ceiling: 7500
Heat Index: 65°   Visibility: 10mi
Dew Point: 57°   Wind: 6mph
Humidity: 75%   Direction: 150°SSE
Pressure: 30.13"   Gusts: NA
Location:  31.6401°N, 98.1198°W
Report Text: KMNZ 231015Z AUTO 15005KT 10SM OVC075 19/14 A3013 RMK AO2 T01860140
Loading
Personal Weather Stations






























Interactive Weather Map
Tropical Storm Tracking
New forecast layout! Learn more

10-Day Weather Forecast

Advertisements
Track Severe Weather on mobile